AirNav   Air Wisconsin Up To $57,000 Bonus
 
 1634 users online  

29S Gardiner Airport
Gardiner, Montana, USA

GOING TO GARDINER?


FAA INFORMATION EFFECTIVE 09 SEPTEMBER 2021

Location

FAA Identifier: 29S
Lat/Long: 45-02-59.7680N 110-44-47.7630W
45-02.996133N 110-44.796050W
45.0499356,-110.7466008
(estimated)
Elevation: 5286 ft. / 1611 m (estimated)
Variation: 16E (1985)
From city: 2 miles NW of GARDINER, MT
Time zone: UTC -6 (UTC -7 during Standard Time)
Zip code: 59030

Airport Operations

Airport use: Open to the public
Activation date: 09/1929
Control tower: no
ARTCC: SALT LAKE CITY CENTER
FSS: GREAT FALLS FLIGHT SERVICE STATION
NOTAMs facility: GTF (NOTAM-D service available)
Attendance: MON-FRI 0800-1700
Wind indicator: lighted
Segmented circle: yes
Lights: ACTVT LIRL RY 10/28 - CTAF.

Airport Communications

CTAF/UNICOM: 122.8

Airport Services

Parking: tiedowns
Bottled oxygen: NONE
Bulk oxygen: NONE

Runway Information

Runway 10/28

Dimensions: 3200 x 55 ft. / 975 x 17 m
Surface: asphalt/aggregate friction seal coat, in poor condition
LARGE CRACKS AND VEGETATION GROWTH THROUGHOUT RUNWAY SURFACE
Weight bearing capacity: 
Single wheel: 4.0
Runway edge lights: low intensity
Runway edge markings: NO CNTRLN RWY 10/28
RUNWAY 10  RUNWAY 28
Traffic pattern: rightleft
Markings: basic, in poor conditionbasic, in poor condition
Obstructions: none422 ft. hill, 4000 ft. from runway, 10:1 slope to clear
PUBLIC ROAD 85 FEET FROM END OF RWY BOTH SIDES ON CENTERLINE

Airport Ownership and Management from official FAA records

Ownership: Publicly-owned
Owner: CITY & COUNTY
COUNTY BLDG
LIVINGSTON, MT 59047
Phone 406-222-6120
Manager: HUNTER MICHELBRINK
414 E CALLENDER ST
LIVINGSTON, MT 59047
Phone (406) 848-7200

Airport Operational Statistics

Aircraft based on the field: 3
Single engine airplanes: 3
    
Aircraft operations: avg 78/month *
54% local general aviation
43% transient general aviation
3% air taxi
* for 12-month period ending 21 July 2019

Additional Remarks

RY 10 MTN 1 1/2 MILE IS 9:1 RATIO.
RY LIGHTS FOR EMERGENCY USE ONLY.
FOR CD CTC SALT LAKE ARTCC AT 801-320-2568.

Instrument Procedures

There are no published instrument procedures at 29S.

Some nearby airports with instrument procedures:

KWYS - Yellowstone Airport (27 nm SW)
KEKS - Ennis - Big Sky Airport (41 nm W)
KLVM - Mission Field Airport (41 nm N)
KBZN - Bozeman Yellowstone International Airport (47 nm N)
6S0 - Big Timber Airport (56 nm NE)
 
Loc | Ops | Rwys | IFR | FBO | Links
Com | Nav | Svcs | Stats | Notes
Area around 29S (Gardiner Airport)
 
Road maps at: MapQuest Bing Google
 
Aerial photo
WARNING: Photo may not be current or correct
Aerial photo of 29S (Gardiner Airport)
Photo taken 27-May-2005

Do you have a better or more recent aerial photo of Gardiner Airport that you would like to share? If so, please send us your photo.

 
Sectional chart

 
Airport distance calculator
Flying to Gardiner Airport? Find the distance to fly.

From to 29S

Sunrise and sunset
Times for 16-Sep-2021
 Local
(UTC-6)
 Zulu
(UTC)
Morning civil twilight06:3412:34
Sunrise07:0413:04
Sunset19:3201:32
Evening civil twilight20:0102:01

Current date and time
Zulu (UTC)  16-Sep-2021 15:08:58
Local (UTC-6)  16-Sep-2021 09:08:58
 
METAR
KWYS 
28nm SW 
161455Z AUTO 00000KT 10SM FEW065 BKN080 OVC090 08/M03 A2995 RMK AO2
KP60 
33nm SE 
161456Z AUTO 22003KT 11/M02 A3002 RMK AO1 SLP101 T01111022 53002
KLVM 
41nm N 
161453Z AUTO 32009KT 10SM FEW090 SCT110 13/02 A2990 RMK AO2 SLP092 60001 T01330022 53023
KBZN 
47nm N 
161456Z 28005KT 10SM CLR 13/02 A2993 RMK AO2 SLP110 T01330022 53027
TAF
KWYS 
28nm SW 
161134Z 1612/1712 VRB03KT P6SM FEW200 FM161800 26012KT P6SM BKN180 FM170600 00000KT P6SM FEW250
NOTAMs
Click for the latest NOTAMs
NOTAMs are issued by the DoD/FAA and will open in a separate window not controlled by AirNav.

 

 
 

Would you like to see your business listed on this page?

 If your business provides an interesting product or service to pilots, flight crews, aircraft, or users of the Gardiner Airport, you should consider listing it here.  To start the listing process, click on the button below
 
Add a business
 

Other Pages about Gardiner Airport

Update a link
 
Copyright © AirNav, LLC. All rights reserved. Privacy Policy  Contact